sensor_id;sensor_type;location;lat;lon;timestamp;pressure;altitude;pressure_sealevel;temperature;humidity
13387;BME280;6763;48.524;9.044;2023-01-31T00:00:49;98734.16;;;7.82;52.42
13387;BME280;6763;48.524;9.044;2023-01-31T00:03:15;98732.44;;;7.83;52.52
13387;BME280;6763;48.524;9.044;2023-01-31T00:05:40;98727.31;;;7.83;52.66
13387;BME280;6763;48.524;9.044;2023-01-31T00:08:05;98722.97;;;7.82;52.64
13387;BME280;6763;48.524;9.044;2023-01-31T00:10:30;98725.53;;;7.79;52.56
13387;BME280;6763;48.524;9.044;2023-01-31T00:12:56;98728.97;;;7.81;52.73
13387;BME280;6763;48.524;9.044;2023-01-31T00:15:22;98725.53;;;7.77;52.70
13387;BME280;6763;48.524;9.044;2023-01-31T00:17:47;98718.66;;;7.76;52.61
13387;BME280;6763;48.524;9.044;2023-01-31T00:20:12;98726.38;;;7.76;52.60
13387;BME280;6763;48.524;9.044;2023-01-31T00:22:38;98723.78;;;7.76;52.62
13387;BME280;6763;48.524;9.044;2023-01-31T00:25:04;98722.06;;;7.74;52.60
13387;BME280;6763;48.524;9.044;2023-01-31T00:27:30;98722.06;;;7.72;52.86
13387;BME280;6763;48.524;9.044;2023-01-31T00:29:55;98723.75;;;7.69;52.71
13387;BME280;6763;48.524;9.044;2023-01-31T00:32:21;98720.28;;;7.67;52.54
13387;BME280;6763;48.524;9.044;2023-01-31T00:34:46;98716.84;;;7.65;52.83
13387;BME280;6763;48.524;9.044;2023-01-31T00:37:11;98722.84;;;7.64;52.66
13387;BME280;6763;48.524;9.044;2023-01-31T00:39:37;98721.94;;;7.60;52.59
13387;BME280;6763;48.524;9.044;2023-01-31T00:42:02;98716.72;;;7.53;52.64
13387;BME280;6763;48.524;9.044;2023-01-31T00:44:28;98717.53;;;7.47;53.21
13387;BME280;6763;48.524;9.044;2023-01-31T00:46:53;98714.91;;;7.38;53.06
13387;BME280;6763;48.524;9.044;2023-01-31T00:49:18;98712.22;;;7.27;53.33
13387;BME280;6763;48.524;9.044;2023-01-31T00:51:44;98713.84;;;7.16;53.27
13387;BME280;6763;48.524;9.044;2023-01-31T00:54:09;98712.94;;;7.10;53.60
13387;BME280;6763;48.524;9.044;2023-01-31T00:56:35;98708.56;;;7.03;53.52
13387;BME280;6763;48.524;9.044;2023-01-31T00:59:02;98702.47;;;6.96;54.18
13387;BME280;6763;48.524;9.044;2023-01-31T01:01:28;98708.47;;;6.92;54.05
13387;BME280;6763;48.524;9.044;2023-01-31T01:03:55;98700.66;;;6.86;54.33
13387;BME280;6763;48.524;9.044;2023-01-31T01:06:21;98692.06;;;6.84;54.17
13387;BME280;6763;48.524;9.044;2023-01-31T01:08:47;98697.19;;;6.79;54.01
13387;BME280;6763;48.524;9.044;2023-01-31T01:11:15;98697.13;;;6.76;54.19
13387;BME280;6763;48.524;9.044;2023-01-31T01:13:41;98691.91;;;6.70;54.53
13387;BME280;6763;48.524;9.044;2023-01-31T01:16:12;98696.16;;;6.65;54.40
13387;BME280;6763;48.524;9.044;2023-01-31T01:18:38;98697.81;;;6.59;54.29
13387;BME280;6763;48.524;9.044;2023-01-31T01:21:08;98702.00;;;6.51;54.28
13387;BME280;6763;48.524;9.044;2023-01-31T01:23:35;98706.16;;;6.43;54.47
13387;BME280;6763;48.524;9.044;2023-01-31T01:26:00;98698.38;;;6.35;54.16
13387;BME280;6763;48.524;9.044;2023-01-31T01:28:25;98699.97;;;6.29;54.50
13387;BME280;6763;48.524;9.044;2023-01-31T01:30:51;98693.97;;;6.25;54.70
13387;BME280;6763;48.524;9.044;2023-01-31T01:33:16;98695.56;;;6.18;54.57
13387;BME280;6763;48.524;9.044;2023-01-31T01:35:41;98691.19;;;6.13;54.77
13387;BME280;6763;48.524;9.044;2023-01-31T01:38:07;98693.72;;;6.07;54.46
13387;BME280;6763;48.524;9.044;2023-01-31T01:40:36;98698.75;;;6.01;55.07
13387;BME280;6763;48.524;9.044;2023-01-31T01:43:02;98695.22;;;5.94;55.01
13387;BME280;6763;48.524;9.044;2023-01-31T01:45:28;98701.19;;;5.92;55.54
13387;BME280;6763;48.524;9.044;2023-01-31T01:47:58;98699.38;;;5.86;55.32
13387;BME280;6763;48.524;9.044;2023-01-31T01:50:28;98697.59;;;5.82;55.24
13387;BME280;6763;48.524;9.044;2023-01-31T01:52:59;98698.41;;;5.78;55.31
13387;BME280;6763;48.524;9.044;2023-01-31T01:58:31;98705.03;;;5.65;55.55
13387;BME280;6763;48.524;9.044;2023-01-31T02:00:57;98721.25;;;5.63;55.44
13387;BME280;6763;48.524;9.044;2023-01-31T02:03:23;98714.38;;;5.59;55.46
13387;BME280;6763;48.524;9.044;2023-01-31T02:05:52;98717.81;;;5.61;55.14
13387;BME280;6763;48.524;9.044;2023-01-31T02:08:20;98727.16;;;5.56;55.29
13387;BME280;6763;48.524;9.044;2023-01-31T02:10:57;98721.13;;;5.52;54.86
13387;BME280;6763;48.524;9.044;2023-01-31T02:13:25;98723.56;;;5.46;55.25
13387;BME280;6763;48.524;9.044;2023-01-31T02:15:51;98717.47;;;5.40;55.04
13387;BME280;6763;48.524;9.044;2023-01-31T02:18:19;98721.69;;;5.36;54.76
13387;BME280;6763;48.524;9.044;2023-01-31T02:24:16;98723.84;;;5.14;54.24
13387;BME280;6763;48.524;9.044;2023-01-31T02:43:25;98734.75;;;4.57;54.50
13387;BME280;6763;48.524;9.044;2023-01-31T02:46:08;98734.63;;;4.51;54.64
13387;BME280;6763;48.524;9.044;2023-01-31T02:48:55;98727.75;;;4.49;54.69
13387;BME280;6763;48.524;9.044;2023-01-31T02:51:29;98743.06;;;4.46;54.83
13387;BME280;6763;48.524;9.044;2023-01-31T02:54:11;98752.41;;;4.44;55.04
13387;BME280;6763;48.524;9.044;2023-01-31T02:56:40;98746.38;;;4.42;54.81
13387;BME280;6763;48.524;9.044;2023-01-31T02:59:16;98752.34;;;4.41;54.65
13387;BME280;6763;48.524;9.044;2023-01-31T03:01:49;98743.72;;;4.35;54.68
13387;BME280;6763;48.524;9.044;2023-01-31T03:04:19;98750.47;;;4.33;54.51
13387;BME280;6763;48.524;9.044;2023-01-31T03:09:53;98757.91;;;4.21;54.78
13387;BME280;6763;48.524;9.044;2023-01-31T03:18:07;98755.03;;;4.47;55.91
13387;BME280;6763;48.524;9.044;2023-01-31T03:20:43;98751.16;;;4.65;56.58
13387;BME280;6763;48.524;9.044;2023-01-31T03:23:17;98744.69;;;4.84;56.35
13387;BME280;6763;48.524;9.044;2023-01-31T03:25:44;98750.16;;;5.00;56.50
13387;BME280;6763;48.524;9.044;2023-01-31T03:28:17;98741.03;;;5.18;56.48
13387;BME280;6763;48.524;9.044;2023-01-31T03:30:55;98749.81;;;5.32;56.68
13387;BME280;6763;48.524;9.044;2023-01-31T03:33:36;98751.78;;;5.45;56.84
13387;BME280;6763;48.524;9.044;2023-01-31T03:42:05;98759.72;;;5.58;56.83
13387;BME280;6763;48.524;9.044;2023-01-31T03:44:40;98764.03;;;5.59;56.93
13387;BME280;6763;48.524;9.044;2023-01-31T03:47:40;98758.84;;;5.56;56.53
13387;BME280;6763;48.524;9.044;2023-01-31T03:50:23;98764.03;;;5.59;56.76
13387;BME280;6763;48.524;9.044;2023-01-31T03:52:56;98766.66;;;5.62;56.74
13387;BME280;6763;48.524;9.044;2023-01-31T03:56:02;98759.88;;;5.68;56.76
13387;BME280;6763;48.524;9.044;2023-01-31T03:58:23;98763.41;;;5.74;57.07
13387;BME280;6763;48.524;9.044;2023-01-31T04:00:51;98760.94;;;5.80;56.61
13387;BME280;6763;48.524;9.044;2023-01-31T04:03:26;98761.91;;;5.87;56.88
13387;BME280;6763;48.524;9.044;2023-01-31T04:05:54;98762.84;;;5.92;56.95
13387;BME280;6763;48.524;9.044;2023-01-31T04:08:19;98769.84;;;6.00;56.83
13387;BME280;6763;48.524;9.044;2023-01-31T04:10:45;98761.38;;;6.07;56.79
13387;BME280;6763;48.524;9.044;2023-01-31T04:13:10;98758.03;;;6.13;56.65
13387;BME280;6763;48.524;9.044;2023-01-31T04:15:36;98765.84;;;6.20;56.63
13387;BME280;6763;48.524;9.044;2023-01-31T04:18:01;98768.47;;;6.23;57.00
13387;BME280;6763;48.524;9.044;2023-01-31T04:20:27;98765.13;;;6.28;56.55
13387;BME280;6763;48.524;9.044;2023-01-31T04:22:52;98764.25;;;6.29;56.41
13387;BME280;6763;48.524;9.044;2023-01-31T04:25:17;98766.81;;;6.27;56.60
13387;BME280;6763;48.524;9.044;2023-01-31T04:27:42;98771.91;;;6.24;56.09
13387;BME280;6763;48.524;9.044;2023-01-31T04:30:08;98764.91;;;6.15;55.94
13387;BME280;6763;48.524;9.044;2023-01-31T04:32:34;98763.94;;;6.07;55.83
13387;BME280;6763;48.524;9.044;2023-01-31T04:34:59;98762.97;;;5.99;56.04
13387;BME280;6763;48.524;9.044;2023-01-31T04:37:24;98768.03;;;5.93;55.96
13387;BME280;6763;48.524;9.044;2023-01-31T04:39:50;98769.63;;;5.87;55.57
13387;BME280;6763;48.524;9.044;2023-01-31T04:42:15;98777.16;;;5.78;55.76
13387;BME280;6763;48.524;9.044;2023-01-31T04:44:41;98773.63;;;5.71;55.51
13387;BME280;6763;48.524;9.044;2023-01-31T04:47:06;98773.44;;;5.60;55.30
13387;BME280;6763;48.524;9.044;2023-01-31T04:49:31;98774.09;;;5.49;54.86
13387;BME280;6763;48.524;9.044;2023-01-31T04:51:57;98775.69;;;5.41;55.73
13387;BME280;6763;48.524;9.044;2023-01-31T04:54:22;98778.22;;;5.39;56.30
13387;BME280;6763;48.524;9.044;2023-01-31T04:56:47;98780.88;;;5.45;56.60
13387;BME280;6763;48.524;9.044;2023-01-31T04:59:16;98775.03;;;5.52;56.87
13387;BME280;6763;48.524;9.044;2023-01-31T05:01:41;98771.72;;;5.61;56.66
13387;BME280;6763;48.524;9.044;2023-01-31T05:04:07;98772.72;;;5.69;56.73
13387;BME280;6763;48.524;9.044;2023-01-31T05:06:32;98781.41;;;5.76;56.54
13387;BME280;6763;48.524;9.044;2023-01-31T05:08:58;98783.22;;;5.83;56.67
13387;BME280;6763;48.524;9.044;2023-01-31T05:11:25;98783.38;;;5.89;56.94
13387;BME280;6763;48.524;9.044;2023-01-31T05:13:51;98783.44;;;5.95;56.70
13387;BME280;6763;48.524;9.044;2023-01-31T05:16:16;98780.09;;;5.99;56.78
13387;BME280;6763;48.524;9.044;2023-01-31T05:18:41;98775.94;;;6.07;56.44
13387;BME280;6763;48.524;9.044;2023-01-31T05:21:07;98777.69;;;6.09;56.44
13387;BME280;6763;48.524;9.044;2023-01-31T05:23:33;98786.28;;;6.13;56.75
13387;BME280;6763;48.524;9.044;2023-01-31T05:25:58;98785.47;;;6.15;56.42
13387;BME280;6763;48.524;9.044;2023-01-31T05:28:24;98791.50;;;6.17;56.10
13387;BME280;6763;48.524;9.044;2023-01-31T05:30:51;98791.53;;;6.20;56.38
13387;BME280;6763;48.524;9.044;2023-01-31T05:33:17;98775.34;;;6.24;56.53
13387;BME280;6763;48.524;9.044;2023-01-31T05:35:45;98779.66;;;6.27;56.33
13387;BME280;6763;48.524;9.044;2023-01-31T05:38:11;98783.16;;;6.32;56.27
13387;BME280;6763;48.524;9.044;2023-01-31T05:40:36;98778.91;;;6.34;56.41
13387;BME280;6763;48.524;9.044;2023-01-31T05:43:01;98777.22;;;6.36;56.28
13387;BME280;6763;48.524;9.044;2023-01-31T05:45:28;98790.09;;;6.39;56.30
13387;BME280;6763;48.524;9.044;2023-01-31T05:47:53;98783.28;;;6.41;56.27
13387;BME280;6763;48.524;9.044;2023-01-31T05:50:19;98775.59;;;6.43;56.13
13387;BME280;6763;48.524;9.044;2023-01-31T05:52:52;98779.91;;;6.45;55.89
13387;BME280;6763;48.524;9.044;2023-01-31T05:55:19;98778.22;;;6.46;55.95
13387;BME280;6763;48.524;9.044;2023-01-31T05:57:44;98776.47;;;6.45;56.23
13387;BME280;6763;48.524;9.044;2023-01-31T06:00:10;98779.06;;;6.46;55.59
13387;BME280;6763;48.524;9.044;2023-01-31T06:02:35;98779.91;;;6.45;55.84
13387;BME280;6763;48.524;9.044;2023-01-31T06:05:01;98785.06;;;6.45;56.01
13387;BME280;6763;48.524;9.044;2023-01-31T06:07:27;98778.16;;;6.43;55.59
13387;BME280;6763;48.524;9.044;2023-01-31T06:09:52;98784.16;;;6.42;55.84
13387;BME280;6763;48.524;9.044;2023-01-31T06:12:17;98790.13;;;6.41;55.99
13387;BME280;6763;48.524;9.044;2023-01-31T06:14:43;98786.66;;;6.39;55.50
13387;BME280;6763;48.524;9.044;2023-01-31T06:17:10;98790.06;;;6.36;55.57
13387;BME280;6763;48.524;9.044;2023-01-31T06:19:35;98786.56;;;6.31;55.86
13387;BME280;6763;48.524;9.044;2023-01-31T06:22:01;98798.50;;;6.26;55.53
13387;BME280;6763;48.524;9.044;2023-01-31T06:24:26;98804.41;;;6.20;56.07
13387;BME280;6763;48.524;9.044;2023-01-31T06:26:51;98789.78;;;6.18;55.72
13387;BME280;6763;48.524;9.044;2023-01-31T06:29:17;98797.44;;;6.13;55.75
13387;BME280;6763;48.524;9.044;2023-01-31T06:31:43;98802.47;;;6.07;55.44
13387;BME280;6763;48.524;9.044;2023-01-31T06:34:09;98804.06;;;5.98;55.45
13387;BME280;6763;48.524;9.044;2023-01-31T06:36:35;98813.34;;;5.88;55.14
13387;BME280;6763;48.524;9.044;2023-01-31T06:39:00;98803.66;;;5.75;55.50
13387;BME280;6763;48.524;9.044;2023-01-31T06:41:25;98801.78;;;5.67;55.46
13387;BME280;6763;48.524;9.044;2023-01-31T06:43:51;98803.34;;;5.57;55.26
13387;BME280;6763;48.524;9.044;2023-01-31T06:46:16;98808.31;;;5.48;55.57
13387;BME280;6763;48.524;9.044;2023-01-31T06:48:42;98797.09;;;5.43;55.49
13387;BME280;6763;48.524;9.044;2023-01-31T06:51:08;98805.53;;;5.37;55.64
13387;BME280;6763;48.524;9.044;2023-01-31T06:53:34;98811.47;;;5.33;55.55
13387;BME280;6763;48.524;9.044;2023-01-31T06:56:00;98814.81;;;5.29;55.62
13387;BME280;6763;48.524;9.044;2023-01-31T06:58:25;98815.59;;;5.25;55.56
13387;BME280;6763;48.524;9.044;2023-01-31T07:00:50;98812.09;;;5.22;55.94
13387;BME280;6763;48.524;9.044;2023-01-31T07:03:16;98820.66;;;5.21;55.79
13387;BME280;6763;48.524;9.044;2023-01-31T07:05:44;98810.25;;;5.15;55.59
13387;BME280;6763;48.524;9.044;2023-01-31T07:08:09;98813.56;;;5.09;55.82
13387;BME280;6763;48.524;9.044;2023-01-31T07:10:34;98810.94;;;5.05;55.99
13387;BME280;6763;48.524;9.044;2023-01-31T07:13:00;98806.59;;;5.00;55.79
13387;BME280;6763;48.524;9.044;2023-01-31T07:15:26;98807.34;;;4.96;56.04
13387;BME280;6763;48.524;9.044;2023-01-31T07:17:56;98803.09;;;4.97;56.11
13387;BME280;6763;48.524;9.044;2023-01-31T07:20:22;98801.28;;;4.93;56.24
13387;BME280;6763;48.524;9.044;2023-01-31T07:22:53;98806.41;;;4.93;56.18
13387;BME280;6763;48.524;9.044;2023-01-31T07:25:19;98802.94;;;4.91;56.29
13387;BME280;6763;48.524;9.044;2023-01-31T07:27:44;98805.50;;;4.89;56.04
13387;BME280;6763;48.524;9.044;2023-01-31T07:30:10;98804.63;;;4.87;56.05
13387;BME280;6763;48.524;9.044;2023-01-31T07:32:35;98802.06;;;4.87;56.40
13387;BME280;6763;48.524;9.044;2023-01-31T07:35:00;98808.88;;;4.88;56.35
13387;BME280;6763;48.524;9.044;2023-01-31T07:37:26;98815.72;;;4.88;56.50
13387;BME280;6763;48.524;9.044;2023-01-31T07:39:51;98807.25;;;4.92;56.79
13387;BME280;6763;48.524;9.044;2023-01-31T07:42:16;98823.56;;;4.95;56.68
13387;BME280;6763;48.524;9.044;2023-01-31T07:44:42;98816.88;;;5.02;57.14
13387;BME280;6763;48.524;9.044;2023-01-31T07:47:07;98812.69;;;5.09;56.61
13387;BME280;6763;48.524;9.044;2023-01-31T07:49:32;98818.00;;;5.16;56.93
13387;BME280;6763;48.524;9.044;2023-01-31T07:51:58;98814.78;;;5.26;57.28
13387;BME280;6763;48.524;9.044;2023-01-31T07:54:23;98825.25;;;5.38;57.39
13387;BME280;6763;48.524;9.044;2023-01-31T07:56:48;98818.69;;;5.52;57.33
13387;BME280;6763;48.524;9.044;2023-01-31T07:59:14;98811.25;;;5.68;56.88
13387;BME280;6763;48.524;9.044;2023-01-31T08:01:41;98808.84;;;5.78;57.23
13387;BME280;6763;48.524;9.044;2023-01-31T08:04:25;98816.78;;;5.90;57.08
13387;BME280;6763;48.524;9.044;2023-01-31T08:06:52;98806.69;;;6.02;57.11
13387;BME280;6763;48.524;9.044;2023-01-31T08:09:18;98812.88;;;6.13;57.21
13387;BME280;6763;48.524;9.044;2023-01-31T08:11:44;98817.31;;;6.23;57.20
13387;BME280;6763;48.524;9.044;2023-01-31T08:14:09;98817.47;;;6.33;56.31
13387;BME280;6763;48.524;9.044;2023-01-31T08:16:34;98810.66;;;6.38;56.28
13387;BME280;6763;48.524;9.044;2023-01-31T08:19:01;98820.38;;;6.58;56.18
13387;BME280;6763;48.524;9.044;2023-01-31T08:21:26;98800.84;;;6.72;55.70
13387;BME280;6763;48.524;9.044;2023-01-31T08:23:51;98811.41;;;6.94;54.72
13387;BME280;6763;48.524;9.044;2023-01-31T08:26:18;98815.03;;;7.09;53.62
13387;BME280;6763;48.524;9.044;2023-01-31T08:28:46;98812.69;;;7.30;53.04
13387;BME280;6763;48.524;9.044;2023-01-31T08:31:17;98816.28;;;7.47;51.93
13387;BME280;6763;48.524;9.044;2023-01-31T08:33:43;98818.16;;;7.64;51.49
13387;BME280;6763;48.524;9.044;2023-01-31T08:38:34;98811.50;;;7.85;50.32
13387;BME280;6763;48.524;9.044;2023-01-31T08:40:59;98814.97;;;7.92;49.88
13387;BME280;6763;48.524;9.044;2023-01-31T08:43:24;98814.25;;;8.08;49.17
13387;BME280;6763;48.524;9.044;2023-01-31T08:45:50;98810.03;;;8.16;48.75
13387;BME280;6763;48.524;9.044;2023-01-31T08:48:15;98811.88;;;8.31;48.04
13387;BME280;6763;48.524;9.044;2023-01-31T08:50:40;98806.81;;;8.44;47.49
13387;BME280;6763;48.524;9.044;2023-01-31T08:53:06;98804.28;;;8.56;47.49
13387;BME280;6763;48.524;9.044;2023-01-31T08:55:33;98800.06;;;8.67;47.05
13387;BME280;6763;48.524;9.044;2023-01-31T08:57:59;98787.16;;;8.72;47.21
13387;BME280;6763;48.524;9.044;2023-01-31T09:00:26;98780.34;;;8.83;46.59
13387;BME280;6763;48.524;9.044;2023-01-31T09:02:56;98772.59;;;8.85;45.73
13387;BME280;6763;48.524;9.044;2023-01-31T09:05:23;98769.19;;;8.98;45.90
13387;BME280;6763;48.524;9.044;2023-01-31T09:07:49;98767.53;;;9.10;46.00
13387;BME280;6763;48.524;9.044;2023-01-31T09:10:16;98769.31;;;9.32;45.17
13387;BME280;6763;48.524;9.044;2023-01-31T09:12:41;98766.78;;;9.57;44.67
13387;BME280;6763;48.524;9.044;2023-01-31T09:15:07;98764.19;;;9.73;43.97
13387;BME280;6763;48.524;9.044;2023-01-31T09:17:32;98763.31;;;9.86;44.28
13387;BME280;6763;48.524;9.044;2023-01-31T09:19:58;98763.31;;;10.00;43.47
13387;BME280;6763;48.524;9.044;2023-01-31T09:22:23;98762.47;;;10.15;43.59
13387;BME280;6763;48.524;9.044;2023-01-31T09:24:48;98759.88;;;10.24;42.50
13387;BME280;6763;48.524;9.044;2023-01-31T09:27:14;98761.59;;;10.32;42.93
13387;BME280;6763;48.524;9.044;2023-01-31T09:29:39;98774.50;;;10.41;42.65
13387;BME280;6763;48.524;9.044;2023-01-31T09:32:05;98765.88;;;10.50;42.42
13387;BME280;6763;48.524;9.044;2023-01-31T09:34:31;98771.88;;;10.53;41.55
13387;BME280;6763;48.524;9.044;2023-01-31T09:36:56;98777.91;;;10.62;42.26
13387;BME280;6763;48.524;9.044;2023-01-31T09:39:25;98766.63;;;10.72;41.68
13387;BME280;6763;48.524;9.044;2023-01-31T09:41:57;98768.38;;;10.76;41.64
13387;BME280;6763;48.524;9.044;2023-01-31T09:44:35;98771.81;;;10.76;41.96
13387;BME280;6763;48.524;9.044;2023-01-31T09:47:15;98775.22;;;10.89;41.85
13387;BME280;6763;48.524;9.044;2023-01-31T09:49:50;98769.94;;;11.05;40.91
13387;BME280;6763;48.524;9.044;2023-01-31T09:52:17;98767.31;;;11.16;40.93
13387;BME280;6763;48.524;9.044;2023-01-31T09:54:43;98763.94;;;11.00;39.69
13387;BME280;6763;48.524;9.044;2023-01-31T09:57:15;98769.94;;;11.08;40.28
13387;BME280;6763;48.524;9.044;2023-01-31T09:59:52;98758.53;;;11.40;39.35
13387;BME280;6763;48.524;9.044;2023-01-31T10:05:22;98738.41;;;11.79;37.86
13387;BME280;6763;48.524;9.044;2023-01-31T10:08:14;98740.31;;;11.50;38.07
13387;BME280;6763;48.524;9.044;2023-01-31T10:10:52;98748.13;;;11.46;38.07
13387;BME280;6763;48.524;9.044;2023-01-31T10:13:38;98752.47;;;11.39;38.42
13387;BME280;6763;48.524;9.044;2023-01-31T10:16:29;98748.13;;;11.46;38.38
13387;BME280;6763;48.524;9.044;2023-01-31T10:19:08;98756.72;;;11.54;38.08
13387;BME280;6763;48.524;9.044;2023-01-31T10:21:46;98756.75;;;11.48;37.84
13387;BME280;6763;48.524;9.044;2023-01-31T10:27:18;98762.88;;;11.41;37.90
13387;BME280;6763;48.524;9.044;2023-01-31T10:29:50;98755.06;;;11.39;37.97
13387;BME280;6763;48.524;9.044;2023-01-31T10:32:22;98755.84;;;11.55;38.46
13387;BME280;6763;48.524;9.044;2023-01-31T10:35:13;98762.66;;;11.74;37.86
13387;BME280;6763;48.524;9.044;2023-01-31T10:37:45;98763.44;;;11.85;37.89
13387;BME280;6763;48.524;9.044;2023-01-31T10:42:43;98755.84;;;11.53;37.99
13387;BME280;6763;48.524;9.044;2023-01-31T10:45:22;98749.00;;;11.42;38.27
13387;BME280;6763;48.524;9.044;2023-01-31T10:47:51;98751.59;;;11.45;38.51
13387;BME280;6763;48.524;9.044;2023-01-31T10:50:19;98752.31;;;11.65;37.51
13387;BME280;6763;48.524;9.044;2023-01-31T10:56:00;98737.91;;;12.31;36.59
13387;BME280;6763;48.524;9.044;2023-01-31T10:58:27;98733.66;;;12.25;36.61
13387;BME280;6763;48.524;9.044;2023-01-31T11:00:53;98732.66;;;12.35;36.03
13387;BME280;6763;48.524;9.044;2023-01-31T11:03:19;98721.88;;;12.72;35.93
13387;BME280;6763;48.524;9.044;2023-01-31T11:05:49;98725.59;;;13.20;35.17
13387;BME280;6763;48.524;9.044;2023-01-31T11:08:26;98714.69;;;13.53;34.29
13387;BME280;6763;48.524;9.044;2023-01-31T11:10:55;98727.34;;;13.76;33.79
13387;BME280;6763;48.524;9.044;2023-01-31T11:13:21;98732.50;;;13.79;33.23
13387;BME280;6763;48.524;9.044;2023-01-31T11:15:49;98720.44;;;13.73;33.01
13387;BME280;6763;48.524;9.044;2023-01-31T11:20:50;98717.34;;;13.50;33.48
13387;BME280;6763;48.524;9.044;2023-01-31T11:23:21;98723.00;;;13.20;34.43
13387;BME280;6763;48.524;9.044;2023-01-31T11:25:49;98704.78;;;13.23;33.80
13387;BME280;6763;48.524;9.044;2023-01-31T11:28:21;98708.09;;;13.31;34.11
13387;BME280;6763;48.524;9.044;2023-01-31T11:30:50;98721.84;;;13.40;34.06
13387;BME280;6763;48.524;9.044;2023-01-31T11:33:59;98726.16;;;13.40;33.71
13387;BME280;6763;48.524;9.044;2023-01-31T11:36:30;98711.31;;;13.46;34.41
13387;BME280;6763;48.524;9.044;2023-01-31T11:38:56;98718.75;;;13.14;33.71
13387;BME280;6763;48.524;9.044;2023-01-31T11:41:35;98701.13;;;12.69;34.28
13387;BME280;6763;48.524;9.044;2023-01-31T11:44:12;98711.13;;;12.27;35.37
13387;BME280;6763;48.524;9.044;2023-01-31T11:46:52;98714.59;;;12.29;35.00
13387;BME280;6763;48.524;9.044;2023-01-31T11:51:54;98698.91;;;12.35;35.14
13387;BME280;6763;48.524;9.044;2023-01-31T11:54:24;98691.03;;;12.43;35.06
13387;BME280;6763;48.524;9.044;2023-01-31T11:56:51;98692.06;;;12.30;34.79
13387;BME280;6763;48.524;9.044;2023-01-31T11:59:22;98672.19;;;12.29;35.22
13387;BME280;6763;48.524;9.044;2023-01-31T12:01:54;98673.34;;;11.99;35.71
13387;BME280;6763;48.524;9.044;2023-01-31T12:04:29;98673.19;;;12.14;35.72
13387;BME280;6763;48.524;9.044;2023-01-31T12:07:18;98663.28;;;12.50;35.19
13387;BME280;6763;48.524;9.044;2023-01-31T12:09:44;98660.50;;;12.65;34.83
13387;BME280;6763;48.524;9.044;2023-01-31T12:12:26;98653.69;;;12.53;35.20
13387;BME280;6763;48.524;9.044;2023-01-31T12:14:57;98673.97;;;12.22;35.84
13387;BME280;6763;48.524;9.044;2023-01-31T12:17:23;98674.16;;;12.04;35.74
13387;BME280;6763;48.524;9.044;2023-01-31T12:26:09;98649.84;;;11.20;37.15
13387;BME280;6763;48.524;9.044;2023-01-31T12:45:06;98640.50;;;10.96;38.30
13387;BME280;6763;48.524;9.044;2023-01-31T12:53:15;98612.16;;;10.74;38.87
13387;BME280;6763;48.524;9.044;2023-01-31T13:01:07;98611.13;;;10.97;38.78
13387;BME280;6763;48.524;9.044;2023-01-31T13:06:49;98598.28;;;10.79;38.61
13387;BME280;6763;48.524;9.044;2023-01-31T13:09:20;98605.97;;;10.93;38.86
13387;BME280;6763;48.524;9.044;2023-01-31T13:11:51;98586.22;;;10.81;38.71
13387;BME280;6763;48.524;9.044;2023-01-31T13:14:23;98587.03;;;10.85;38.80
13387;BME280;6763;48.524;9.044;2023-01-31T13:16:54;98602.47;;;11.01;38.62
13387;BME280;6763;48.524;9.044;2023-01-31T13:19:26;98582.59;;;11.00;38.49
13387;BME280;6763;48.524;9.044;2023-01-31T13:22:01;98583.44;;;11.02;38.37
13387;BME280;6763;48.524;9.044;2023-01-31T13:24:35;98581.78;;;10.95;38.68
13387;BME280;6763;48.524;9.044;2023-01-31T13:27:16;98575.81;;;10.84;38.62
13387;BME280;6763;48.524;9.044;2023-01-31T13:29:52;98553.56;;;10.59;39.18
13387;BME280;6763;48.524;9.044;2023-01-31T13:32:28;98569.97;;;10.56;38.92
13387;BME280;6763;48.524;9.044;2023-01-31T13:37:22;98572.63;;;10.47;39.21
13387;BME280;6763;48.524;9.044;2023-01-31T13:39:54;98569.16;;;10.47;39.05
13387;BME280;6763;48.524;9.044;2023-01-31T13:42:21;98569.16;;;10.47;39.50
13387;BME280;6763;48.524;9.044;2023-01-31T13:44:47;98551.03;;;10.48;39.34
13387;BME280;6763;48.524;9.044;2023-01-31T13:47:24;98547.59;;;10.46;39.43
13387;BME280;6763;48.524;9.044;2023-01-31T13:49:56;98547.63;;;10.39;39.29
13387;BME280;6763;48.524;9.044;2023-01-31T13:52:35;98538.16;;;10.38;39.60
13387;BME280;6763;48.524;9.044;2023-01-31T13:55:14;98551.13;;;10.32;39.71
13387;BME280;6763;48.524;9.044;2023-01-31T13:57:42;98543.41;;;10.26;40.87
13387;BME280;6763;48.524;9.044;2023-01-31T14:03:12;98570.19;;;10.13;40.80
13387;BME280;6763;48.524;9.044;2023-01-31T14:10:55;98582.38;;;9.74;41.43
13387;BME280;6763;48.524;9.044;2023-01-31T14:13:36;98574.56;;;9.89;41.62
13387;BME280;6763;48.524;9.044;2023-01-31T14:16:02;98575.44;;;9.90;41.67
13387;BME280;6763;48.524;9.044;2023-01-31T14:18:39;98571.97;;;9.95;41.25
13387;BME280;6763;48.524;9.044;2023-01-31T14:24:02;98579.66;;;10.08;41.17
13387;BME280;6763;48.524;9.044;2023-01-31T14:29:08;98573.63;;;10.18;41.12
13387;BME280;6763;48.524;9.044;2023-01-31T14:31:34;98573.63;;;10.19;40.70
13387;BME280;6763;48.524;9.044;2023-01-31T14:34:02;98574.50;;;10.14;40.78
13387;BME280;6763;48.524;9.044;2023-01-31T14:42:14;98534.88;;;9.99;41.00
13387;BME280;6763;48.524;9.044;2023-01-31T14:44:57;98525.50;;;9.68;41.88
13387;BME280;6763;48.524;9.044;2023-01-31T14:51:39;98548.69;;;9.98;41.89
13387;BME280;6763;48.524;9.044;2023-01-31T14:59:32;98536.63;;;9.91;42.17
13387;BME280;6763;48.524;9.044;2023-01-31T15:02:14;98526.25;;;9.99;41.60
13387;BME280;6763;48.524;9.044;2023-01-31T15:04:43;98529.69;;;10.03;41.69
13387;BME280;6763;48.524;9.044;2023-01-31T15:07:19;98522.78;;;10.14;41.65
13387;BME280;6763;48.524;9.044;2023-01-31T15:09:44;98528.81;;;10.13;41.89
13387;BME280;6763;48.524;9.044;2023-01-31T15:12:50;98530.53;;;10.17;41.52
13387;BME280;6763;48.524;9.044;2023-01-31T15:15:24;98523.63;;;10.14;41.21
13387;BME280;6763;48.524;9.044;2023-01-31T15:17:51;98533.13;;;10.06;41.54
13387;BME280;6763;48.524;9.044;2023-01-31T15:20:24;98524.56;;;9.95;41.96
13387;BME280;6763;48.524;9.044;2023-01-31T15:22:56;98528.06;;;9.80;41.82
13387;BME280;6763;48.524;9.044;2023-01-31T15:27:54;98527.19;;;9.78;42.03
13387;BME280;6763;48.524;9.044;2023-01-31T15:30:21;98530.66;;;9.71;42.53
13387;BME280;6763;48.524;9.044;2023-01-31T15:32:55;98541.84;;;9.76;42.52
13387;BME280;6763;48.524;9.044;2023-01-31T15:35:29;98530.66;;;9.77;42.55